createdAt,value
2017-12-17T00:00:54.469Z,39.80
2017-12-17T00:03:23.960Z,34.87
2017-12-17T00:05:52.558Z,31.93
2017-12-17T00:08:21.157Z,36.87
2017-12-17T00:10:50.543Z,36.07
2017-12-17T00:13:19.127Z,40.67
2017-12-17T00:15:48.522Z,34.53
2017-12-17T00:18:17.091Z,36.10
2017-12-17T00:20:45.721Z,34.97
2017-12-17T00:23:15.102Z,37.37
2017-12-17T00:25:43.710Z,36.20
2017-12-17T00:28:12.331Z,33.60
2017-12-17T00:30:40.931Z,41.77
2017-12-17T00:33:10.487Z,37.00
2017-12-17T00:35:39.095Z,42.40
2017-12-17T00:38:07.710Z,45.77
2017-12-17T00:40:36.331Z,42.37
2017-12-17T00:43:05.022Z,36.73
2017-12-17T00:45:33.647Z,42.60
2017-12-17T00:48:02.238Z,38.43
2017-12-17T00:50:30.833Z,40.17
2017-12-17T00:52:59.446Z,41.27
2017-12-17T00:55:28.154Z,36.47
2017-12-17T00:57:56.762Z,40.43
2017-12-17T01:00:25.739Z,35.70
2017-12-17T01:02:54.327Z,39.50
2017-12-17T01:05:22.922Z,42.70
2017-12-17T01:07:52.313Z,40.03
2017-12-17T01:10:20.944Z,41.80
2017-12-17T01:12:49.919Z,39.73
2017-12-17T01:15:19.271Z,41.80
2017-12-17T01:17:47.878Z,43.37
2017-12-17T01:20:17.286Z,33.77
2017-12-17T01:22:46.732Z,41.83
2017-12-17T01:25:16.091Z,41.30
2017-12-17T01:27:45.463Z,33.87
2017-12-17T01:30:14.075Z,36.73
2017-12-17T01:32:42.690Z,36.43
2017-12-17T01:35:11.328Z,36.17
2017-12-17T01:37:40.720Z,31.67
2017-12-17T01:40:10.071Z,36.40
2017-12-17T01:45:14.043Z,30.67
2017-12-17T01:47:42.627Z,31.43
2017-12-17T01:50:11.988Z,33.33
2017-12-17T01:52:40.700Z,28.40
2017-12-17T01:55:09.784Z,33.33
2017-12-17T01:57:38.409Z,27.40
2017-12-17T02:00:07.023Z,29.10
2017-12-17T02:02:35.641Z,34.40
2017-12-17T02:05:04.278Z,28.30
2017-12-17T02:07:33.644Z,28.20
2017-12-17T02:10:03.118Z,28.40
2017-12-17T02:12:31.710Z,30.00
2017-12-17T02:15:00.319Z,33.33
2017-12-17T02:17:29.693Z,41.70
2017-12-17T02:19:58.319Z,32.63
2017-12-17T02:22:27.682Z,31.60
2017-12-17T02:24:56.293Z,27.13
2017-12-17T02:27:25.675Z,27.67
2017-12-17T02:29:54.290Z,28.17
2017-12-17T02:32:23.643Z,32.83
2017-12-17T02:34:52.576Z,32.03
2017-12-17T02:37:21.166Z,26.70
2017-12-17T02:39:50.542Z,29.20
2017-12-17T02:42:19.152Z,34.43
2017-12-17T02:44:48.561Z,32.03
2017-12-17T02:47:17.927Z,30.67
2017-12-17T02:49:46.544Z,32.80
2017-12-17T02:52:15.927Z,29.67
2017-12-17T02:54:44.516Z,30.60
2017-12-17T02:57:13.921Z,25.10
2017-12-17T02:59:42.522Z,28.20
2017-12-17T03:02:11.295Z,28.90
2017-12-17T03:04:40.667Z,30.03
2017-12-17T03:07:09.278Z,33.83
2017-12-17T03:09:37.859Z,31.13
2017-12-17T03:12:07.243Z,34.87
2017-12-17T03:14:35.842Z,29.30
2017-12-17T03:17:05.218Z,33.27
2017-12-17T03:19:33.839Z,31.70
2017-12-17T03:22:03.207Z,30.73
2017-12-17T03:24:31.820Z,33.30
2017-12-17T03:27:01.201Z,31.27
2017-12-17T03:29:29.800Z,33.27
2017-12-17T03:31:59.168Z,55.57
2017-12-17T03:34:27.754Z,35.10
2017-12-17T03:36:56.382Z,35.73
2017-12-17T03:39:25.754Z,37.27
2017-12-17T03:41:54.342Z,32.13
2017-12-17T03:44:23.006Z,39.87
2017-12-17T03:46:51.597Z,34.70
2017-12-17T03:49:20.194Z,40.13
2017-12-17T03:51:48.812Z,38.03
2017-12-17T03:54:18.178Z,32.20
2017-12-17T03:56:46.785Z,32.13
2017-12-17T03:59:15.399Z,37.57
2017-12-17T04:01:44.762Z,35.20
2017-12-17T04:04:13.367Z,40.60
2017-12-17T04:06:42.761Z,38.90
2017-12-17T04:09:12.142Z,34.63
2017-12-17T04:11:40.765Z,37.40
2017-12-17T04:14:10.120Z,35.00
2017-12-17T04:16:38.802Z,40.23
2017-12-17T04:19:07.321Z,37.97
2017-12-17T04:21:36.716Z,35.93
2017-12-17T04:24:05.299Z,31.87
2017-12-17T04:26:34.702Z,35.70
2017-12-17T04:29:03.311Z,34.07
2017-12-17T04:31:31.926Z,36.13
2017-12-17T04:34:00.518Z,30.87
2017-12-17T04:36:29.973Z,30.83
2017-12-17T04:38:58.562Z,31.30
2017-12-17T04:41:27.276Z,29.63
2017-12-17T04:43:55.858Z,33.80
2017-12-17T04:46:24.466Z,33.43
2017-12-17T04:48:53.076Z,35.43
2017-12-17T04:51:21.675Z,35.20
2017-12-17T04:53:50.305Z,36.37
2017-12-17T04:56:19.801Z,35.10
2017-12-17T04:58:48.395Z,39.60
2017-12-17T05:01:17.755Z,33.80
2017-12-17T05:03:46.433Z,36.17
2017-12-17T05:06:15.014Z,38.63
2017-12-17T05:08:43.632Z,37.63
2017-12-17T05:11:13.404Z,33.90
2017-12-17T05:13:42.030Z,32.50
2017-12-17T05:16:11.414Z,33.73
2017-12-17T05:18:40.046Z,31.83
2017-12-17T05:21:08.662Z,29.80
2017-12-17T05:23:37.259Z,30.30
2017-12-17T05:26:05.878Z,32.57
2017-12-17T05:28:34.906Z,38.70
2017-12-17T05:31:03.533Z,31.07
2017-12-17T05:33:32.131Z,32.70
2017-12-17T05:36:00.783Z,30.60
2017-12-17T05:38:29.365Z,36.53
2017-12-17T05:40:57.963Z,33.67
2017-12-17T05:43:27.331Z,32.90
2017-12-17T05:45:55.936Z,37.10
2017-12-17T05:48:24.529Z,39.80
2017-12-17T05:50:53.266Z,35.60
2017-12-17T05:53:21.870Z,36.20
2017-12-17T05:55:50.486Z,38.87
2017-12-17T05:58:19.903Z,36.27
2017-12-17T06:00:48.528Z,32.23
2017-12-17T06:03:17.144Z,28.00
2017-12-17T06:05:45.750Z,29.03
2017-12-17T06:08:14.392Z,29.40
2017-12-17T06:10:43.039Z,28.33
2017-12-17T06:13:11.667Z,29.90
2017-12-17T06:15:40.264Z,29.10
2017-12-17T06:18:08.870Z,27.90
2017-12-17T06:20:38.283Z,28.20
2017-12-17T06:23:07.650Z,29.00
2017-12-17T06:25:36.263Z,29.33
2017-12-17T06:28:05.638Z,28.20
2017-12-17T06:30:34.239Z,24.20
2017-12-17T06:33:03.622Z,34.50
2017-12-17T06:35:32.217Z,33.60
2017-12-17T06:38:01.610Z,36.00
2017-12-17T06:40:30.231Z,37.63
2017-12-17T06:42:58.822Z,26.53
2017-12-17T06:45:27.431Z,31.40
2017-12-17T06:47:56.067Z,29.10
2017-12-17T06:50:26.958Z,25.97
2017-12-17T06:52:55.578Z,25.53
2017-12-17T06:55:24.990Z,30.20
2017-12-17T06:57:53.607Z,31.43
2017-12-17T07:00:22.224Z,27.97
2017-12-17T07:02:50.815Z,30.27
2017-12-17T07:05:20.227Z,27.47
2017-12-17T07:10:30.776Z,28.50
2017-12-17T07:12:59.379Z,25.10
2017-12-17T07:15:27.975Z,29.37
2017-12-17T07:17:57.341Z,28.87
2017-12-17T07:20:26.181Z,29.47
2017-12-17T07:22:55.554Z,26.93
2017-12-17T07:25:25.020Z,29.37
2017-12-17T07:27:53.817Z,28.47
2017-12-17T07:30:22.437Z,29.07
2017-12-17T07:32:51.882Z,27.73
2017-12-17T07:35:21.219Z,26.27
2017-12-17T07:37:49.839Z,24.43
2017-12-17T07:40:18.450Z,18.90
2017-12-17T07:42:47.799Z,24.50
2017-12-17T07:45:16.429Z,26.43
2017-12-17T07:47:44.998Z,24.87
2017-12-17T07:50:15.101Z,30.40
2017-12-17T07:52:43.725Z,27.70
2017-12-17T07:55:13.470Z,25.67
2017-12-17T07:57:42.075Z,27.30
2017-12-17T08:00:10.698Z,23.43
2017-12-17T08:02:39.743Z,27.57
2017-12-17T08:05:08.378Z,25.97
2017-12-17T08:07:36.995Z,26.50
2017-12-17T08:10:05.614Z,25.77
2017-12-17T08:12:34.214Z,27.73
2017-12-17T08:15:03.969Z,27.80
2017-12-17T08:17:34.163Z,29.20
2017-12-17T08:20:02.757Z,32.07
2017-12-17T08:22:31.358Z,32.97
2017-12-17T08:25:00.908Z,28.53
2017-12-17T08:27:29.604Z,31.97
2017-12-17T08:29:58.186Z,31.30
2017-12-17T08:32:26.779Z,31.57
2017-12-17T08:34:56.147Z,32.90
2017-12-17T08:37:24.765Z,36.10
2017-12-17T08:39:53.748Z,35.03
2017-12-17T08:42:22.365Z,35.67
2017-12-17T08:44:51.755Z,41.73
2017-12-17T08:47:21.354Z,34.30
2017-12-17T08:49:50.135Z,38.30
2017-12-17T08:52:18.707Z,38.43
2017-12-17T08:54:47.320Z,34.57
2017-12-17T08:57:16.698Z,39.83
2017-12-17T08:59:45.311Z,33.87
2017-12-17T09:02:14.675Z,38.33
2017-12-17T09:04:43.325Z,33.00
2017-12-17T09:07:13.299Z,37.40
2017-12-17T09:09:43.187Z,37.40
2017-12-17T09:12:11.785Z,35.50
2017-12-17T09:14:41.538Z,32.57
2017-12-17T09:17:10.132Z,32.83
2017-12-17T09:19:38.738Z,36.70
2017-12-17T09:22:07.359Z,37.80
2017-12-17T09:24:36.782Z,53.23
2017-12-17T09:27:05.395Z,44.43
2017-12-17T09:29:34.046Z,43.10
2017-12-17T09:32:02.626Z,42.90
2017-12-17T09:34:31.979Z,41.60
2017-12-17T09:37:00.606Z,40.73
2017-12-17T09:39:29.214Z,45.40
2017-12-17T09:41:58.727Z,43.07
2017-12-17T09:44:28.104Z,48.67
2017-12-17T09:46:57.513Z,42.97
2017-12-17T09:49:26.879Z,46.17
2017-12-17T09:51:55.508Z,45.30
2017-12-17T09:54:24.875Z,48.17
2017-12-17T09:56:53.959Z,45.53
2017-12-17T09:59:22.583Z,53.23
2017-12-17T10:01:51.944Z,56.10
2017-12-17T10:04:20.553Z,55.60
2017-12-17T10:06:49.194Z,58.43
2017-12-17T10:09:19.059Z,67.23
2017-12-17T10:11:47.683Z,51.60
2017-12-17T10:14:16.271Z,61.17
2017-12-17T10:16:44.908Z,57.63
2017-12-17T10:19:14.559Z,53.83
2017-12-17T10:21:43.185Z,52.07
2017-12-17T10:24:12.926Z,53.83
2017-12-17T10:26:42.294Z,57.53
2017-12-17T10:29:10.890Z,51.03
2017-12-17T10:31:39.528Z,53.10
2017-12-17T10:34:08.162Z,54.17
2017-12-17T10:36:37.528Z,49.07
2017-12-17T10:39:06.154Z,51.00
2017-12-17T10:41:34.749Z,53.40
2017-12-17T10:44:04.173Z,46.83
2017-12-17T10:46:33.237Z,54.77
2017-12-17T10:49:01.826Z,55.10
2017-12-17T10:51:30.431Z,62.20
2017-12-17T10:53:59.096Z,55.73
2017-12-17T10:56:27.707Z,51.30
2017-12-17T10:58:56.372Z,51.93
2017-12-17T11:01:26.259Z,59.57
2017-12-17T11:03:54.863Z,56.07
2017-12-17T11:06:23.472Z,46.80
2017-12-17T11:08:52.084Z,59.93
2017-12-17T11:11:22.009Z,48.23
2017-12-17T11:13:50.659Z,47.03
2017-12-17T11:16:20.032Z,48.10
2017-12-17T11:18:48.635Z,45.10
2017-12-17T11:21:18.018Z,45.40
2017-12-17T11:23:46.760Z,42.57
2017-12-17T11:26:15.382Z,43.30
2017-12-17T11:28:43.976Z,42.10
2017-12-17T11:31:13.573Z,40.63
2017-12-17T11:33:42.167Z,37.77
2017-12-17T11:36:11.523Z,41.43
2017-12-17T11:38:40.162Z,41.47
2017-12-17T11:41:09.575Z,39.47
2017-12-17T11:43:38.968Z,37.70
2017-12-17T11:46:08.363Z,37.23
2017-12-17T11:48:37.753Z,34.80
2017-12-17T11:51:06.353Z,35.27
2017-12-17T11:53:35.745Z,37.00
2017-12-17T11:56:04.352Z,36.63
2017-12-17T11:58:32.986Z,36.53
2017-12-17T12:01:01.616Z,38.23
2017-12-17T12:03:30.277Z,39.13
2017-12-17T12:05:58.881Z,34.67
2017-12-17T12:08:27.500Z,34.37
2017-12-17T12:10:56.125Z,35.60
2017-12-17T12:13:24.773Z,35.33
2017-12-17T12:15:53.403Z,39.83
2017-12-17T12:18:22.839Z,34.20
2017-12-17T12:20:51.479Z,35.20
2017-12-17T12:23:20.096Z,32.70
2017-12-17T12:25:48.761Z,36.83
2017-12-17T12:28:17.344Z,34.97
2017-12-17T12:30:46.715Z,36.10
2017-12-17T12:33:16.062Z,36.23
2017-12-17T12:35:45.456Z,39.57
2017-12-17T12:38:14.097Z,35.07
2017-12-17T12:40:42.739Z,35.10
2017-12-17T12:43:11.349Z,34.53
2017-12-17T12:45:39.947Z,40.40
2017-12-17T12:48:08.569Z,40.47
2017-12-17T12:50:37.968Z,36.17
2017-12-17T12:53:07.443Z,42.87
2017-12-17T12:55:36.674Z,48.10
2017-12-17T12:58:05.329Z,38.97
2017-12-17T13:00:33.934Z,37.50
2017-12-17T13:03:02.550Z,39.60
2017-12-17T13:05:31.159Z,43.00
2017-12-17T13:07:59.779Z,45.67
2017-12-17T13:10:28.438Z,36.70
2017-12-17T13:12:57.041Z,40.43
2017-12-17T13:15:25.691Z,45.73
2017-12-17T13:17:54.330Z,45.50
2017-12-17T13:20:23.678Z,37.67
2017-12-17T13:22:52.789Z,43.10
2017-12-17T13:25:22.287Z,41.60
2017-12-17T13:27:50.882Z,40.27
2017-12-17T13:30:19.495Z,38.13
2017-12-17T13:32:48.883Z,40.80
2017-12-17T13:35:18.247Z,44.33
2017-12-17T13:37:46.854Z,42.60
2017-12-17T13:40:16.684Z,42.50
2017-12-17T13:42:45.283Z,45.20
2017-12-17T13:45:14.842Z,41.30
2017-12-17T13:47:43.460Z,47.53
2017-12-17T13:50:12.091Z,43.33
2017-12-17T13:52:40.805Z,44.57
2017-12-17T13:55:09.488Z,58.30
2017-12-17T13:57:38.200Z,53.40
2017-12-17T14:00:07.725Z,49.50
2017-12-17T14:02:37.336Z,47.80
2017-12-17T14:05:07.143Z,43.97
2017-12-17T14:07:35.770Z,47.27
2017-12-17T14:10:04.377Z,43.50
2017-12-17T14:12:34.110Z,43.13
2017-12-17T14:15:02.688Z,41.77
2017-12-17T14:17:32.088Z,36.53
2017-12-17T14:20:01.499Z,39.47
2017-12-17T14:22:30.900Z,42.80
2017-12-17T14:25:00.331Z,45.57
2017-12-17T14:27:29.687Z,54.43
2017-12-17T14:29:58.329Z,50.77
2017-12-17T14:32:26.922Z,47.87
2017-12-17T14:34:56.518Z,50.10
2017-12-17T14:37:25.148Z,48.43
2017-12-17T14:39:54.551Z,44.07
2017-12-17T14:42:23.289Z,43.40
2017-12-17T14:44:53.062Z,41.53
2017-12-17T14:47:22.752Z,40.87
2017-12-17T14:49:51.552Z,50.00
2017-12-17T14:52:21.180Z,54.70
2017-12-17T14:54:50.043Z,44.67
2017-12-17T14:57:20.603Z,45.80
2017-12-17T14:59:49.474Z,37.33
2017-12-17T15:02:19.062Z,46.70
2017-12-17T15:04:48.701Z,48.47
2017-12-17T15:07:17.552Z,42.93
2017-12-17T15:09:46.398Z,50.90
2017-12-17T15:12:15.284Z,42.17
2017-12-17T15:14:44.197Z,41.70
2017-12-17T15:17:13.066Z,51.20
2017-12-17T15:19:42.276Z,36.83
2017-12-17T15:22:11.147Z,34.63
2017-12-17T15:24:40.014Z,47.47
2017-12-17T15:27:09.652Z,41.90
2017-12-17T15:29:38.507Z,49.50
2017-12-17T15:32:07.365Z,41.10
2017-12-17T15:34:36.261Z,42.83
2017-12-17T15:37:05.887Z,44.07
2017-12-17T15:39:34.729Z,44.87
2017-12-17T15:42:03.610Z,36.07
2017-12-17T15:44:32.495Z,30.27
2017-12-17T15:47:02.137Z,30.37
2017-12-17T15:49:30.987Z,33.63
2017-12-17T15:51:59.819Z,31.87
2017-12-17T15:54:28.732Z,36.00
2017-12-17T15:56:58.372Z,27.67
2017-12-17T15:59:28.153Z,31.13
2017-12-17T16:01:57.795Z,34.30
2017-12-17T16:04:26.643Z,32.10
2017-12-17T16:06:56.270Z,33.13
2017-12-17T16:09:25.918Z,34.70
2017-12-17T16:11:54.760Z,35.47
2017-12-17T16:14:23.640Z,32.70
2017-12-17T16:16:52.510Z,38.73
2017-12-17T16:19:21.988Z,36.30
2017-12-17T16:21:50.809Z,39.07
2017-12-17T16:24:19.678Z,46.70
2017-12-17T16:26:48.538Z,35.13
2017-12-17T16:29:18.251Z,30.23
2017-12-17T16:31:47.666Z,37.37
2017-12-17T16:34:16.531Z,34.87
2017-12-17T16:36:46.058Z,35.30
2017-12-17T16:39:14.915Z,28.83
2017-12-17T16:41:46.091Z,25.43
2017-12-17T16:44:15.723Z,37.13
2017-12-17T16:46:44.598Z,32.33
2017-12-17T16:49:13.525Z,28.43
2017-12-17T16:51:42.403Z,32.77
2017-12-17T16:54:11.621Z,27.17
2017-12-17T16:56:40.469Z,32.53
2017-12-17T16:59:10.071Z,30.00
2017-12-17T17:01:39.673Z,28.80
2017-12-17T17:04:09.384Z,29.03
2017-12-17T17:06:39.047Z,30.20
2017-12-17T17:09:07.941Z,32.03
2017-12-17T17:11:36.778Z,35.20
2017-12-17T17:14:06.409Z,25.60
2017-12-17T17:16:35.302Z,23.77
2017-12-17T17:19:04.184Z,28.40
2017-12-17T17:21:33.037Z,26.43
2017-12-17T17:24:02.811Z,31.23
2017-12-17T17:26:31.675Z,30.60
2017-12-17T17:42:00.554Z,29.73
2017-12-17T17:44:30.198Z,32.13
2017-12-17T17:46:59.058Z,34.17
2017-12-17T17:49:28.690Z,30.37
2017-12-17T17:51:58.717Z,33.27
2017-12-17T17:54:28.382Z,38.10
2017-12-17T17:56:57.863Z,37.20
2017-12-17T17:59:28.303Z,35.00
2017-12-17T18:01:57.143Z,44.27
2017-12-17T18:04:25.993Z,41.40
2017-12-17T18:06:55.697Z,37.63
2017-12-17T18:09:24.520Z,34.77
2017-12-17T18:11:54.524Z,31.73
2017-12-17T18:14:24.241Z,33.30
2017-12-17T18:16:53.087Z,33.67
2017-12-17T18:19:22.014Z,32.10
2017-12-17T18:21:51.638Z,34.83
2017-12-17T18:24:20.506Z,30.50
2017-12-17T18:26:50.299Z,31.13
2017-12-17T18:29:19.722Z,30.10
2017-12-17T18:31:50.208Z,25.20
2017-12-17T18:34:19.999Z,35.03
2017-12-17T18:36:48.842Z,32.17
2017-12-17T18:39:20.376Z,29.20
2017-12-17T18:41:49.484Z,34.03
2017-12-17T18:44:18.658Z,31.20
2017-12-17T18:46:47.843Z,31.40
2017-12-17T18:49:17.691Z,33.63
2017-12-17T18:51:46.771Z,30.00
2017-12-17T18:54:15.674Z,33.70
2017-12-17T18:56:44.803Z,33.10
2017-12-17T18:59:14.012Z,28.00
2017-12-17T19:01:44.874Z,31.67
2017-12-17T19:04:13.748Z,28.87
2017-12-17T19:06:42.896Z,31.50
2017-12-17T19:09:13.042Z,30.10
2017-12-17T19:11:42.239Z,34.40
2017-12-17T19:14:11.439Z,31.87
2017-12-17T19:16:42.285Z,29.07
2017-12-17T19:19:12.257Z,36.53
2017-12-17T19:21:41.445Z,32.20
2017-12-17T19:24:10.321Z,36.37
2017-12-17T19:26:39.962Z,31.40
2017-12-17T19:29:09.081Z,33.23
2017-12-17T19:31:37.981Z,29.00
2017-12-17T19:34:07.173Z,34.17
2017-12-17T19:36:36.466Z,37.17
2017-12-17T19:39:05.368Z,37.53
2017-12-17T19:41:34.568Z,35.80
2017-12-17T19:44:04.572Z,36.97
2017-12-17T19:46:33.476Z,37.23
2017-12-17T19:49:02.608Z,41.07
2017-12-17T19:51:32.246Z,37.47
2017-12-17T19:54:02.231Z,42.60
2017-12-17T19:56:31.862Z,38.30
2017-12-17T19:59:01.731Z,47.53
2017-12-17T20:01:31.877Z,45.37
2017-12-17T20:04:00.742Z,36.63
2017-12-17T20:06:29.635Z,39.27
2017-12-17T20:08:58.862Z,37.97
2017-12-17T20:11:30.301Z,37.13
2017-12-17T20:14:00.391Z,39.43
2017-12-17T20:16:30.191Z,39.20
2017-12-17T20:19:00.147Z,43.93
2017-12-17T20:21:29.014Z,41.40
2017-12-17T20:23:57.927Z,41.53
2017-12-17T20:26:27.090Z,40.67
2017-12-17T20:28:56.012Z,35.77
2017-12-17T20:31:24.935Z,33.10
2017-12-17T20:33:55.021Z,44.33
2017-12-17T20:36:24.218Z,36.30
2017-12-17T20:38:53.182Z,40.60
2017-12-17T20:41:22.040Z,41.13
2017-12-17T20:43:51.710Z,30.27
2017-12-17T20:46:21.350Z,39.70
2017-12-17T20:48:50.210Z,37.70
2017-12-17T20:51:20.202Z,37.40
2017-12-17T20:53:50.956Z,33.70
2017-12-17T20:56:20.621Z,36.17
2017-12-17T20:58:49.486Z,35.93
2017-12-17T21:01:18.357Z,34.30
2017-12-17T21:03:48.241Z,33.13
2017-12-17T21:06:18.112Z,36.97
2017-12-17T21:08:47.350Z,32.60
2017-12-17T21:11:16.240Z,38.73
2017-12-17T21:13:45.284Z,32.70
2017-12-17T21:16:15.068Z,37.17
2017-12-17T21:18:44.009Z,35.17
2017-12-17T21:21:13.023Z,32.07
2017-12-17T21:23:41.839Z,29.33
2017-12-17T21:26:10.717Z,31.27
2017-12-17T21:28:39.575Z,28.83
2017-12-17T21:31:08.443Z,31.73
2017-12-17T21:33:37.299Z,27.70
2017-12-17T21:36:06.938Z,30.20
2017-12-17T21:38:35.783Z,29.07
2017-12-17T21:41:04.736Z,27.27
2017-12-17T21:43:33.618Z,30.07
2017-12-17T21:46:06.947Z,29.07
2017-12-17T21:48:36.556Z,29.53
2017-12-17T21:51:05.567Z,25.07
2017-12-17T21:53:34.447Z,23.13
2017-12-17T21:56:03.311Z,22.73
2017-12-17T21:58:32.186Z,24.83
2017-12-17T22:03:36.445Z,19.87
2017-12-17T22:06:05.295Z,20.13
2017-12-17T22:08:34.148Z,24.80
2017-12-17T22:11:03.014Z,21.03
2017-12-17T22:13:31.874Z,21.33
2017-12-17T22:16:01.506Z,16.00
2017-12-17T22:18:31.123Z,14.70
2017-12-17T22:20:59.978Z,18.90
2017-12-17T22:23:29.593Z,13.10
2017-12-17T22:25:59.216Z,20.77
2017-12-17T22:28:28.073Z,11.57
2017-12-17T22:30:57.689Z,11.77
2017-12-17T22:33:27.361Z,11.90
2017-12-17T22:35:56.935Z,10.70
2017-12-17T22:38:25.778Z,13.07
2017-12-17T22:40:54.639Z,18.63
2017-12-17T22:43:23.496Z,16.40
2017-12-17T22:45:52.336Z,11.30
2017-12-17T22:48:21.176Z,10.50
2017-12-17T22:50:50.035Z,11.43
2017-12-17T22:53:18.867Z,12.53
2017-12-17T22:55:47.777Z,11.60
2017-12-17T22:58:17.315Z,14.67
2017-12-17T23:00:46.930Z,11.77
2017-12-17T23:03:16.564Z,14.50
2017-12-17T23:05:45.396Z,9.27
2017-12-17T23:08:14.214Z,9.87
2017-12-17T23:10:43.051Z,9.57
2017-12-17T23:13:11.909Z,8.03
2017-12-17T23:15:41.503Z,10.40
2017-12-17T23:18:11.135Z,9.07
2017-12-17T23:20:40.737Z,12.77
2017-12-17T23:23:09.580Z,11.87
2017-12-17T23:25:38.435Z,8.77
2017-12-17T23:28:07.281Z,10.77
2017-12-17T23:30:38.614Z,9.47
2017-12-17T23:33:07.442Z,8.70
2017-12-17T23:35:36.564Z,10.80
2017-12-17T23:38:05.413Z,11.30
2017-12-17T23:40:34.297Z,9.53
2017-12-17T23:43:03.171Z,9.07
2017-12-17T23:45:31.999Z,8.50
2017-12-17T23:48:01.604Z,9.70
2017-12-17T23:50:31.216Z,10.33
2017-12-17T23:53:00.844Z,8.50
2017-12-17T23:55:29.652Z,9.50
2017-12-17T23:57:58.506Z,10.33
